createdAt,value
2023-01-03T00:01:32.422Z,102594.94
2023-01-03T00:04:00.593Z,102594.03
2023-01-03T00:06:41.235Z,102598.94
2023-01-03T00:09:12.204Z,102596.31
2023-01-03T00:11:58.758Z,102592.09
2023-01-03T00:14:31.162Z,102583.22
2023-01-03T00:16:59.788Z,102579.00
2023-01-03T00:19:29.661Z,102587.88
2023-01-03T00:21:58.011Z,102588.66
2023-01-03T00:24:25.104Z,102579.31
2023-01-03T00:26:52.124Z,102579.28
2023-01-03T00:29:19.997Z,102584.56
2023-01-03T00:31:48.864Z,102576.59
2023-01-03T00:34:16.137Z,102576.72
2023-01-03T00:36:46.052Z,102571.50
2023-01-03T00:39:13.185Z,102571.50
2023-01-03T00:41:43.615Z,102570.59
2023-01-03T00:44:15.149Z,102569.00
2023-01-03T00:46:42.565Z,102560.41
2023-01-03T00:49:10.401Z,102556.16
2023-01-03T00:51:43.296Z,102557.09
2023-01-03T00:54:12.785Z,102557.94
2023-01-03T00:56:43.495Z,102556.06
2023-01-03T01:02:29.425Z,102549.06
2023-01-03T01:05:02.036Z,102535.13
2023-01-03T01:07:32.484Z,102550.63
2023-01-03T01:10:05.119Z,102552.28
2023-01-03T01:12:32.300Z,102552.28
2023-01-03T01:15:02.312Z,102558.13
2023-01-03T01:17:37.122Z,102564.16
2023-01-03T01:20:15.463Z,102562.38
2023-01-03T01:22:48.554Z,102558.81
2023-01-03T01:25:18.619Z,102558.00
2023-01-03T01:27:51.572Z,102564.88
2023-01-03T01:30:26.590Z,102564.56
2023-01-03T01:32:59.170Z,102565.88
2023-01-03T01:35:33.792Z,102569.50
2023-01-03T01:38:05.761Z,102565.94
2023-01-03T01:40:39.230Z,102559.78
2023-01-03T01:43:38.480Z,102558.00
2023-01-03T01:46:24.555Z,102555.63
2023-01-03T01:49:06.255Z,102559.34
2023-01-03T01:51:36.282Z,102564.22
2023-01-03T01:54:09.938Z,102574.56
2023-01-03T01:57:06.939Z,102574.56
2023-01-03T02:00:03.283Z,102568.69
2023-01-03T02:02:32.982Z,102568.94
2023-01-03T02:05:03.725Z,102577.53
2023-01-03T02:07:31.676Z,102571.50
2023-01-03T02:09:59.199Z,102575.06
2023-01-03T02:13:03.702Z,102568.22
2023-01-03T02:15:40.863Z,102571.09
2023-01-03T02:18:35.131Z,102579.00
2023-01-03T02:21:20.510Z,102584.16
2023-01-03T02:23:47.663Z,102586.84
2023-01-03T02:26:20.681Z,102583.38
2023-01-03T02:29:05.000Z,102586.94
2023-01-03T02:31:44.486Z,102586.94
2023-01-03T02:34:44.154Z,102591.34
2023-01-03T02:37:19.083Z,102592.94
2023-01-03T02:39:55.957Z,102601.66
2023-01-03T02:42:48.644Z,102598.16
2023-01-03T02:45:21.264Z,102598.16
2023-01-03T02:48:11.415Z,102596.31
2023-01-03T02:50:49.719Z,102596.22
2023-01-03T02:53:20.119Z,102599.56
2023-01-03T02:55:53.451Z,102596.66
2023-01-03T02:58:26.271Z,102603.78
2023-01-03T03:00:56.301Z,102599.81
2023-01-03T03:03:35.061Z,102598.22
2023-01-03T03:06:12.662Z,102599.94
2023-01-03T03:08:39.884Z,102596.44
2023-01-03T03:11:26.059Z,102594.53
2023-01-03T03:14:03.239Z,102589.38
2023-01-03T03:16:59.901Z,102586.84
2023-01-03T03:19:49.726Z,102597.22
2023-01-03T03:22:54.623Z,102599.81
2023-01-03T03:25:35.455Z,102592.75
2023-01-03T03:28:28.508Z,102594.53
2023-01-03T03:30:58.847Z,102602.44
2023-01-03T03:33:32.033Z,102612.53
2023-01-03T03:36:17.733Z,102610.97
2023-01-03T03:38:48.606Z,102612.75
2023-01-03T03:41:35.511Z,102608.47
2023-01-03T03:44:46.948Z,102615.47
2023-01-03T03:47:40.509Z,102609.38
2023-01-03T03:50:19.590Z,102616.44
2023-01-03T03:52:56.671Z,102613.69
2023-01-03T03:55:38.017Z,102617.91
2023-01-03T03:58:19.581Z,102619.31
2023-01-03T04:00:51.414Z,102620.97
2023-01-03T04:03:25.568Z,102613.88
2023-01-03T04:06:00.494Z,102604.28
2023-01-03T04:08:27.893Z,102610.53
2023-01-03T04:11:05.994Z,102603.31
2023-01-03T04:13:39.381Z,102603.25
2023-01-03T04:16:07.372Z,102600.53
2023-01-03T04:18:35.343Z,102603.13
2023-01-03T04:21:02.381Z,102606.59
2023-01-03T04:23:29.478Z,102608.81
2023-01-03T04:25:56.732Z,102603.53
2023-01-03T04:28:27.037Z,102595.66
2023-01-03T04:30:58.732Z,102603.69
2023-01-03T04:33:28.800Z,102598.16
2023-01-03T04:35:57.498Z,102608.53
2023-01-03T04:38:33.894Z,102600.94
2023-01-03T04:41:08.029Z,102604.38
2023-01-03T04:43:54.491Z,102604.53
2023-01-03T04:46:22.039Z,102600.25
2023-01-03T04:48:49.442Z,102593.94
2023-01-03T04:51:16.986Z,102598.03
2023-01-03T04:53:47.103Z,102600.03
2023-01-03T04:56:14.098Z,102607.88
2023-01-03T04:58:44.915Z,102601.59
2023-01-03T05:01:12.157Z,102602.66
2023-01-03T05:03:42.347Z,102612.13
2023-01-03T05:06:12.783Z,102614.59
2023-01-03T05:08:40.588Z,102612.69
2023-01-03T05:11:11.082Z,102600.66
2023-01-03T05:13:40.934Z,102613.63
2023-01-03T05:16:10.696Z,102624.41
2023-01-03T05:18:41.174Z,102629.47
2023-01-03T05:21:27.926Z,102635.69
2023-01-03T05:24:16.939Z,102645.34
2023-01-03T05:26:44.507Z,102646.34
2023-01-03T05:29:18.723Z,102643.56
2023-01-03T05:31:47.354Z,102643.44
2023-01-03T05:34:18.440Z,102639.78
2023-01-03T05:36:48.675Z,102637.19
2023-01-03T05:39:18.686Z,102638.06
2023-01-03T05:42:02.705Z,102643.22
2023-01-03T05:44:33.576Z,102648.31
2023-01-03T05:47:04.836Z,102649.09
2023-01-03T05:49:37.019Z,102654.16
2023-01-03T05:52:04.357Z,102661.09
2023-01-03T05:54:38.713Z,102665.47
2023-01-03T05:57:11.876Z,102664.47
2023-01-03T05:59:42.514Z,102667.00
2023-01-03T06:02:17.180Z,102678.88
2023-01-03T06:04:45.058Z,102683.88
2023-01-03T06:07:18.420Z,102683.00
2023-01-03T06:09:49.117Z,102684.09
2023-01-03T06:12:21.977Z,102685.81
2023-01-03T06:14:50.872Z,102693.69
2023-01-03T06:17:46.300Z,102690.47
2023-01-03T06:20:17.119Z,102686.84
2023-01-03T06:22:53.201Z,102692.06
2023-01-03T06:25:26.788Z,102696.28
2023-01-03T06:27:59.205Z,102701.63
2023-01-03T06:30:29.681Z,102698.31
2023-01-03T06:33:07.835Z,102697.19
2023-01-03T06:35:43.776Z,102690.94
2023-01-03T06:38:11.368Z,102699.47
2023-01-03T06:40:45.415Z,102696.16
2023-01-03T06:43:28.046Z,102702.97
2023-01-03T06:46:21.111Z,102710.78
2023-01-03T06:49:09.929Z,102716.91
2023-01-03T06:51:56.329Z,102715.44
2023-01-03T06:54:28.604Z,102722.25
2023-01-03T06:57:01.320Z,102730.13
2023-01-03T06:59:36.032Z,102735.16
2023-01-03T07:02:08.489Z,102733.31
2023-01-03T07:04:39.475Z,102739.34
2023-01-03T07:07:09.642Z,102753.00
2023-01-03T07:09:37.232Z,102747.84
2023-01-03T07:12:27.154Z,102747.97
2023-01-03T07:14:56.857Z,102742.91
2023-01-03T07:17:24.196Z,102741.28
2023-01-03T07:19:51.915Z,102756.03
2023-01-03T07:22:19.583Z,102761.00
2023-01-03T07:24:50.915Z,102761.19
2023-01-03T07:27:27.250Z,102760.41
2023-01-03T07:29:57.561Z,102763.03
2023-01-03T07:32:25.177Z,102766.66
2023-01-03T07:34:54.925Z,102767.72
2023-01-03T07:37:25.179Z,102770.41
2023-01-03T07:39:52.498Z,102768.63
2023-01-03T07:42:39.046Z,102769.78
2023-01-03T07:45:06.886Z,102772.03
2023-01-03T07:47:34.496Z,102769.69
2023-01-03T07:50:01.936Z,102775.00
2023-01-03T07:52:35.414Z,102778.22
2023-01-03T07:55:08.674Z,102785.16
2023-01-03T07:57:38.904Z,102780.97
2023-01-03T08:00:06.410Z,102788.03
2023-01-03T08:02:39.525Z,102797.72
2023-01-03T08:05:07.124Z,102799.72
2023-01-03T08:07:37.275Z,102803.34
2023-01-03T08:10:25.256Z,102809.63
2023-01-03T08:13:13.923Z,102810.00
2023-01-03T08:15:43.422Z,102818.19
2023-01-03T08:18:10.488Z,102814.88
2023-01-03T08:20:40.028Z,102811.81
2023-01-03T08:23:07.164Z,102820.75
2023-01-03T08:25:35.494Z,102821.06
2023-01-03T08:28:05.645Z,102818.53
2023-01-03T08:30:33.297Z,102825.63
2023-01-03T08:33:03.241Z,102831.03
2023-01-03T08:35:33.748Z,102828.09
2023-01-03T08:38:02.973Z,102832.88
2023-01-03T08:40:36.735Z,102830.28
2023-01-03T08:43:07.897Z,102838.47
2023-01-03T08:45:35.170Z,102845.34
2023-01-03T08:48:03.140Z,102842.09
2023-01-03T08:50:36.025Z,102855.50
2023-01-03T08:53:05.421Z,102852.06
2023-01-03T08:55:37.569Z,102862.56
2023-01-03T08:58:04.573Z,102857.50
2023-01-03T09:00:31.649Z,102865.19
2023-01-03T09:03:01.368Z,102859.59
2023-01-03T09:05:37.340Z,102861.25
2023-01-03T09:08:09.905Z,102858.94
2023-01-03T09:10:47.657Z,102869.50
2023-01-03T09:13:18.145Z,102875.13
2023-01-03T09:15:45.326Z,102877.97
2023-01-03T09:18:13.018Z,102882.53
2023-01-03T09:20:40.298Z,102880.38
2023-01-03T09:23:07.757Z,102888.41
2023-01-03T09:25:39.051Z,102893.56
2023-01-03T09:28:06.305Z,102904.09
2023-01-03T09:30:44.282Z,102902.44
2023-01-03T09:33:11.914Z,102905.22
2023-01-03T09:35:39.458Z,102908.34
2023-01-03T09:38:13.416Z,102920.06
2023-01-03T09:40:41.969Z,102928.84
2023-01-03T09:43:15.665Z,102921.38
2023-01-03T09:45:52.134Z,102918.75
2023-01-03T09:48:29.881Z,102922.50
2023-01-03T09:51:18.309Z,102927.25
2023-01-03T09:54:03.031Z,102932.03
2023-01-03T09:56:52.811Z,102932.38
2023-01-03T09:59:38.421Z,102939.88
2023-01-03T10:02:30.628Z,102939.50
2023-01-03T10:05:16.360Z,102940.03
2023-01-03T10:07:52.587Z,102931.81
2023-01-03T10:10:25.652Z,102937.47
2023-01-03T10:13:02.926Z,102938.28
2023-01-03T10:15:32.971Z,102939.09
2023-01-03T10:18:15.413Z,102938.06
2023-01-03T10:20:46.406Z,102934.84
2023-01-03T10:23:13.657Z,102942.59
2023-01-03T10:25:43.376Z,102944.19
2023-01-03T10:28:13.129Z,102939.84
2023-01-03T10:30:58.320Z,102928.28
2023-01-03T10:33:39.492Z,102922.81
2023-01-03T10:36:08.495Z,102924.50
2023-01-03T10:38:43.529Z,102925.38
2023-01-03T10:41:20.560Z,102922.97
2023-01-03T10:44:03.802Z,102925.78
2023-01-03T10:46:32.035Z,102920.44
2023-01-03T10:49:27.077Z,102915.25
2023-01-03T10:52:16.339Z,102910.84
2023-01-03T10:54:51.987Z,102912.94
2023-01-03T10:57:36.435Z,102904.84
2023-01-03T11:00:23.848Z,102908.06
2023-01-03T11:02:51.582Z,102889.47
2023-01-03T11:05:20.649Z,102890.47
2023-01-03T11:07:58.258Z,102884.66
2023-01-03T11:10:31.106Z,102883.16
2023-01-03T11:12:59.235Z,102877.38
2023-01-03T11:15:38.798Z,102871.63
2023-01-03T11:18:18.586Z,102869.38
2023-01-03T11:21:04.352Z,102859.50
2023-01-03T11:23:37.562Z,102859.78
2023-01-03T11:26:27.959Z,102869.69
2023-01-03T11:29:15.127Z,102863.09
2023-01-03T11:31:50.805Z,102865.94
2023-01-03T11:34:27.294Z,102864.38
2023-01-03T11:37:17.754Z,102859.13
2023-01-03T11:40:01.768Z,102851.28
2023-01-03T11:42:45.554Z,102849.66
2023-01-03T11:45:24.738Z,102844.53
2023-01-03T11:47:57.752Z,102852.44
2023-01-03T11:50:28.091Z,102842.16
2023-01-03T11:53:21.351Z,102838.97
2023-01-03T11:56:07.380Z,102838.19
2023-01-03T11:58:53.278Z,102836.88
2023-01-03T12:01:42.923Z,102835.56
2023-01-03T12:04:16.146Z,102820.88
2023-01-03T12:06:49.403Z,102817.97
2023-01-03T12:09:25.958Z,102818.16
2023-01-03T12:11:55.024Z,102811.13
2023-01-03T12:14:27.248Z,102812.81
2023-01-03T12:16:57.359Z,102805.94
2023-01-03T12:19:39.659Z,102793.63
2023-01-03T12:22:06.674Z,102800.91
2023-01-03T12:24:33.577Z,102800.47
2023-01-03T12:27:21.107Z,102791.84
2023-01-03T12:29:57.523Z,102783.09
2023-01-03T12:32:43.207Z,102786.94
2023-01-03T12:35:28.770Z,102781.78
2023-01-03T12:37:59.444Z,102771.38
2023-01-03T12:40:28.595Z,102767.81
2023-01-03T12:43:02.065Z,102765.09
2023-01-03T12:45:41.354Z,102764.13
2023-01-03T12:48:11.430Z,102757.16
2023-01-03T12:50:51.761Z,102757.06
2023-01-03T12:53:34.078Z,102758.03
2023-01-03T12:56:36.722Z,102758.06
2023-01-03T12:59:10.693Z,102753.59
2023-01-03T13:01:37.891Z,102744.59
2023-01-03T13:04:12.902Z,102746.09
2023-01-03T13:06:50.444Z,102748.09
2023-01-03T13:09:21.414Z,102744.75
2023-01-03T13:11:53.828Z,102741.25
2023-01-03T13:14:22.652Z,102748.25
2023-01-03T13:16:50.830Z,102745.34
2023-01-03T13:19:20.634Z,102746.25
2023-01-03T13:21:53.679Z,102752.53
2023-01-03T13:24:42.583Z,102739.47
2023-01-03T13:27:21.095Z,102748.38
2023-01-03T13:29:50.780Z,102744.81
2023-01-03T13:32:20.861Z,102742.16
2023-01-03T13:34:59.447Z,102743.91
2023-01-03T13:37:29.895Z,102740.16
2023-01-03T13:40:17.461Z,102742.69
2023-01-03T13:42:44.817Z,102744.59
2023-01-03T13:45:11.736Z,102746.72
2023-01-03T13:47:41.306Z,102749.97
2023-01-03T13:50:28.539Z,102744.53
2023-01-03T13:53:00.534Z,102750.00
2023-01-03T13:55:41.358Z,102746.22
2023-01-03T13:58:27.447Z,102745.56
2023-01-03T14:01:05.563Z,102747.03
2023-01-03T14:03:51.130Z,102745.34
2023-01-03T14:06:40.303Z,102747.81
2023-01-03T14:09:32.443Z,102747.66
2023-01-03T14:12:28.236Z,102752.09
2023-01-03T14:14:56.963Z,102744.94
2023-01-03T14:17:33.357Z,102747.28
2023-01-03T14:20:06.314Z,102749.03
2023-01-03T14:22:41.239Z,102746.84
2023-01-03T14:25:12.088Z,102749.53
2023-01-03T14:27:41.761Z,102751.03
2023-01-03T14:30:28.683Z,102744.16
2023-01-03T14:32:55.720Z,102743.50
2023-01-03T14:35:36.609Z,102740.53
2023-01-03T14:38:07.580Z,102746.84
2023-01-03T14:40:34.816Z,102744.69
2023-01-03T14:43:05.304Z,102743.88
2023-01-03T14:45:32.369Z,102738.00
2023-01-03T14:47:59.477Z,102741.72
2023-01-03T14:50:30.532Z,102745.28
2023-01-03T14:53:01.627Z,102745.38
2023-01-03T14:55:31.036Z,102747.22
2023-01-03T14:58:00.417Z,102752.63
2023-01-03T15:00:33.211Z,102747.16
2023-01-03T15:03:04.897Z,102753.34
2023-01-03T15:05:32.080Z,102754.16
2023-01-03T15:08:09.101Z,102755.19
2023-01-03T15:10:59.978Z,102755.09
2023-01-03T15:13:30.197Z,102766.97
2023-01-03T15:15:59.179Z,102769.38
2023-01-03T15:18:29.908Z,102766.47
2023-01-03T15:21:00.993Z,102766.63
2023-01-03T15:23:48.522Z,102780.38
2023-01-03T15:26:41.071Z,102787.91
2023-01-03T15:29:15.482Z,102795.38
2023-01-03T15:31:58.985Z,102792.03
2023-01-03T15:34:35.201Z,102787.03
2023-01-03T15:37:18.158Z,102794.31
2023-01-03T15:39:53.075Z,102792.44
2023-01-03T15:42:58.522Z,102801.69
2023-01-03T15:45:39.493Z,102806.22
2023-01-03T15:48:20.406Z,102800.78
2023-01-03T15:51:03.285Z,102802.75
2023-01-03T15:53:46.575Z,102808.09
2023-01-03T15:59:34.693Z,102818.84
2023-01-03T16:02:13.060Z,102821.25
2023-01-03T16:04:49.804Z,102820.00
2023-01-03T16:07:17.146Z,102822.84
2023-01-03T16:09:44.525Z,102830.75
2023-01-03T16:15:05.652Z,102835.41
2023-01-03T16:17:33.388Z,102840.13
2023-01-03T16:20:01.408Z,102841.09
2023-01-03T16:22:35.447Z,102844.78
2023-01-03T16:25:12.331Z,102838.78
2023-01-03T16:27:39.602Z,102850.56
2023-01-03T16:30:13.618Z,102848.75
2023-01-03T16:32:43.714Z,102850.25
2023-01-03T16:35:18.654Z,102860.69
2023-01-03T16:37:48.758Z,102859.47
2023-01-03T16:40:17.793Z,102870.38
2023-01-03T16:42:53.236Z,102859.19
2023-01-03T16:45:20.910Z,102878.69
2023-01-03T16:47:52.197Z,102876.59
2023-01-03T16:50:22.150Z,102878.91
2023-01-03T16:52:55.266Z,102879.25
2023-01-03T16:55:37.570Z,102887.50
2023-01-03T16:58:19.909Z,102894.84
2023-01-03T17:00:47.628Z,102895.63
2023-01-03T17:03:17.931Z,102897.84
2023-01-03T17:05:45.397Z,102892.25
2023-01-03T17:08:38.915Z,102903.22
2023-01-03T17:11:12.212Z,102899.81
2023-01-03T17:13:46.876Z,102898.81
2023-01-03T17:16:29.316Z,102903.63
2023-01-03T17:19:08.360Z,102901.91
2023-01-03T17:21:51.336Z,102908.31
2023-01-03T17:24:36.182Z,102916.97
2023-01-03T17:27:05.274Z,102926.97
2023-01-03T17:29:38.908Z,102922.50
2023-01-03T17:32:31.881Z,102930.66
2023-01-03T17:35:02.260Z,102929.66
2023-01-03T17:38:14.307Z,102939.72
2023-01-03T17:40:51.572Z,102937.59
2023-01-03T17:43:27.585Z,102944.97
2023-01-03T17:46:23.155Z,102948.19
2023-01-03T17:49:15.500Z,102950.00
2023-01-03T17:51:49.615Z,102957.78
2023-01-03T17:54:20.329Z,102958.66
2023-01-03T17:56:50.010Z,102960.16
2023-01-03T17:59:17.905Z,102967.13
2023-01-03T18:01:45.311Z,102969.06
2023-01-03T18:04:50.053Z,102975.94
2023-01-03T18:07:21.417Z,102986.72
2023-01-03T18:09:56.158Z,102989.03
2023-01-03T18:12:37.265Z,102987.28
2023-01-03T18:15:07.189Z,102992.53
2023-01-03T18:17:37.569Z,102993.22
2023-01-03T18:20:06.021Z,102997.09
2023-01-03T18:22:33.535Z,102989.66
2023-01-03T18:25:01.084Z,102994.28
2023-01-03T18:27:31.203Z,102997.56
2023-01-03T18:30:01.829Z,103001.59
2023-01-03T18:32:30.438Z,103005.22
2023-01-03T18:35:01.449Z,103009.47
2023-01-03T18:37:36.303Z,103011.50
2023-01-03T18:40:15.837Z,103007.28
2023-01-03T18:43:02.160Z,103003.53
2023-01-03T18:45:32.026Z,103005.31
2023-01-03T18:48:03.128Z,103010.53
2023-01-03T18:50:35.976Z,103013.22
2023-01-03T18:53:06.169Z,103014.28
2023-01-03T18:55:39.538Z,103017.09
2023-01-03T18:58:23.603Z,103024.31
2023-01-03T19:00:54.001Z,103029.59
2023-01-03T19:03:28.530Z,103032.38
2023-01-03T19:05:56.817Z,103031.94
2023-01-03T19:08:25.251Z,103040.13
2023-01-03T19:10:53.384Z,103039.91
2023-01-03T19:13:28.143Z,103036.97
2023-01-03T19:15:57.272Z,103042.38
2023-01-03T19:18:25.188Z,103047.91
2023-01-03T19:20:53.056Z,103038.38
2023-01-03T19:23:29.100Z,103040.94
2023-01-03T19:25:57.165Z,103045.13
2023-01-03T19:28:25.682Z,103039.00
2023-01-03T19:30:55.834Z,103042.91
2023-01-03T19:33:23.543Z,103050.75
2023-01-03T19:35:52.933Z,103061.19
2023-01-03T19:38:24.402Z,103059.19
2023-01-03T19:40:57.041Z,103055.03
2023-01-03T19:43:33.939Z,103058.03
2023-01-03T19:46:01.977Z,103061.47
2023-01-03T19:48:32.387Z,103069.25
2023-01-03T19:51:01.284Z,103067.25
2023-01-03T19:53:28.922Z,103058.72
2023-01-03T19:55:59.623Z,103060.06
2023-01-03T19:58:35.368Z,103059.09
2023-01-03T20:01:03.546Z,103062.84
2023-01-03T20:03:41.113Z,103072.53
2023-01-03T20:06:16.580Z,103069.34
2023-01-03T20:08:47.549Z,103068.22
2023-01-03T20:11:25.425Z,103075.72
2023-01-03T20:13:54.104Z,103067.25
2023-01-03T20:16:24.195Z,103075.53
2023-01-03T20:18:54.158Z,103075.28
2023-01-03T20:21:26.788Z,103073.50
2023-01-03T20:23:58.590Z,103077.13
2023-01-03T20:26:30.147Z,103078.78
2023-01-03T20:29:00.509Z,103074.31
2023-01-03T20:31:28.025Z,103085.59
2023-01-03T20:33:56.363Z,103084.78
2023-01-03T20:36:28.795Z,103087.91
2023-01-03T20:39:01.887Z,103077.91
2023-01-03T20:41:37.000Z,103082.47
2023-01-03T20:46:55.577Z,103082.16
2023-01-03T20:49:35.259Z,103083.44
2023-01-03T20:52:07.238Z,103084.38
2023-01-03T20:54:36.685Z,103090.91
2023-01-03T20:57:14.377Z,103084.22
2023-01-03T20:59:43.005Z,103089.13
2023-01-03T21:02:11.622Z,103090.00
2023-01-03T21:04:42.093Z,103100.88
2023-01-03T21:07:18.478Z,103096.19
2023-01-03T21:09:50.399Z,103096.69
2023-01-03T21:12:17.869Z,103096.91
2023-01-03T21:14:45.931Z,103096.97
2023-01-03T21:17:14.366Z,103105.88
2023-01-03T21:19:41.672Z,103097.91
2023-01-03T21:22:21.297Z,103097.06
2023-01-03T21:24:55.673Z,103106.53
2023-01-03T21:27:27.368Z,103104.91
2023-01-03T21:29:57.385Z,103113.72
2023-01-03T21:32:27.080Z,103114.25
2023-01-03T21:34:54.979Z,103119.19
2023-01-03T21:37:22.993Z,103113.72
2023-01-03T21:39:49.992Z,103114.41
2023-01-03T21:42:35.777Z,103118.81
2023-01-03T21:45:05.214Z,103115.06
2023-01-03T21:47:35.253Z,103110.97
2023-01-03T21:50:05.994Z,103115.22
2023-01-03T21:52:36.663Z,103109.31
2023-01-03T21:55:06.075Z,103111.84
2023-01-03T21:57:34.380Z,103112.97
2023-01-03T22:00:01.541Z,103112.16
2023-01-03T22:02:59.872Z,103115.13
2023-01-03T22:05:33.179Z,103117.13
2023-01-03T22:08:07.876Z,103110.22
2023-01-03T22:10:37.190Z,103107.81
2023-01-03T22:13:09.497Z,103119.41
2023-01-03T22:15:38.224Z,103113.34
2023-01-03T22:18:09.236Z,103107.97
2023-01-03T22:20:39.242Z,103109.88
2023-01-03T22:23:08.670Z,103119.81
2023-01-03T22:25:38.236Z,103113.94
2023-01-03T22:28:08.134Z,103118.72
2023-01-03T22:30:35.739Z,103118.56
2023-01-03T22:33:08.904Z,103110.81
2023-01-03T22:35:36.077Z,103114.47
2023-01-03T22:38:06.007Z,103110.28
2023-01-03T22:40:39.183Z,103116.38
2023-01-03T22:43:11.267Z,103109.75
2023-01-03T22:45:49.153Z,103111.59
2023-01-03T22:48:30.678Z,103115.25
2023-01-03T22:51:15.029Z,103111.38
2023-01-03T22:54:00.720Z,103115.88
2023-01-03T22:56:40.569Z,103108.69
2023-01-03T22:59:08.422Z,103110.03
2023-01-03T23:01:39.558Z,103110.34
2023-01-03T23:04:07.048Z,103119.47
2023-01-03T23:06:51.083Z,103112.13
2023-01-03T23:09:21.130Z,103115.94
2023-01-03T23:12:11.334Z,103114.56
2023-01-03T23:14:40.854Z,103121.28
2023-01-03T23:17:29.428Z,103119.63
2023-01-03T23:20:04.218Z,103120.03
2023-01-03T23:22:41.605Z,103117.16
2023-01-03T23:25:16.548Z,103117.84
2023-01-03T23:27:43.600Z,103121.28
2023-01-03T23:30:19.373Z,103118.09
2023-01-03T23:32:59.045Z,103125.28
2023-01-03T23:35:28.824Z,103117.31
2023-01-03T23:38:06.136Z,103112.09
2023-01-03T23:40:41.882Z,103116.56
2023-01-03T23:43:32.415Z,103115.50
2023-01-03T23:46:34.822Z,103112.56
2023-01-03T23:49:04.638Z,103115.19
2023-01-03T23:51:37.856Z,103111.44
2023-01-03T23:54:14.372Z,103112.84
2023-01-03T23:56:44.547Z,103114.88
2023-01-03T23:59:13.434Z,103116.59
